Weather observations for the past three days for
Manitowoc, Manitowoc County Airport
Imperial (Metric)
Date Time (cdt) Wind (mph) Vis. (mi.) Weather Sky Cond. Temperature (ºF) Relative Humidity Wind Chill (°F) Heat Index (°F) Pressure Precipitation (in)
Air Dwpt 6 hour altimeter (in) sea level (mb) 1 hr 3 hr 6 hr
Max. Min.
09 10:56 NW 13 10.00 A Few Clouds FEW070 55.9 33.1 42% 29.59 1002.2
09 09:56 W 15 10.00 Partly Cloudy SCT075 55.9 33.1 42% 29.59 1002.0
09 08:56 W 10 10.00 Partly Cloudy FEW060 SCT070 53.1 33.1 47% 29.57 1001.6
09 07:56 W 10 10.00 Fair CLR 53.1 34 48% 29.54 1000.3
09 06:56 W 12 10.00 Fair CLR 53.1 37 55 42.1 55% 29.52 999.7
09 05:56 SW 10 10.00 Fair CLR 54 39 57% 29.49 998.7
09 04:56 SW 7 10.00 Fair CLR 50 41 71% 48 29.48 998.5
09 03:56 S 5 6.00 Fog/Mist CLR 42.1 42.1 100% 40 29.5 999.2
09 02:56 E 3 6.00 Fog/Mist SCT100 42.1 42.1 100% 29.52 999.9
09 01:56 E 5 10.00 Fair CLR 46.9 43 86% 45 29.54 1000.3
09 00:56 SE 3 10.00 Mostly Cloudy BKN110 51.1 42.1 54 50 71% 29.58 1001.5
08 23:56 S 8 10.00 Mostly Cloudy FEW090 BKN110 53.1 42.1 66% 29.6 1002.4
08 22:56 SW 9 10.00 Mostly Cloudy BKN100 BKN120 53.1 39.9 61% 29.62 1003.0
08 21:56 S 13 10.00 A Few Clouds FEW110 51.1 37.9 61% 29.63 1003.3
08 20:56 S 9 10.00 Mostly Cloudy BKN100 BKN120 54 28 37% 29.64 1003.7
08 19:56 S 10 10.00 Overcast OVC100 54 28 37% 29.64 1003.9
08 18:56 S 14 10.00 Fair CLR 54 30 64.9 54 40% 29.65 1004.2
08 17:56 S 18 10.00 Fair CLR 55.9 30 37% 29.66 1004.4
08 16:56 S 20 G 28 10.00 Mostly Cloudy BKN110 55.9 28.9 36% 29.67 1004.9
08 15:56 S 17 10.00 A Few Clouds FEW095 55.9 28.9 36% 29.68 1005.3
08 14:56 S 15 10.00 A Few Clouds FEW095 57 30 36% 29.71 1006.2
08 13:56 W 14 10.00 Fair CLR 63 25 24% 29.72 1006.6
08 12:56 W 12 G 21 10.00 Fair CLR 64 26.1 64 45 24% 29.74 1007.4
08 11:56 SW 18 G 24 10.00 Fair CLR 62.1 24.1 23% 29.77 1008.4
08 10:56 W 18 G 22 10.00 Fair CLR 61 25 25% 29.79 1008.9
08 09:56 W 13 G 16 10.00 Fair CLR 59 27 29% 29.8 1009.5
08 08:56 SW 10 10.00 Fair CLR 55.9 28 34% 29.81 1009.5
08 07:56 SW 10 10.00 Fair CLR 51.1 28.9 43% 29.81 1009.7
08 06:56 SW 8 10.00 Fair CLR 45 30 45 37 56% 41 29.81 1009.8
08 05:56 SW 7 10.00 Fair CLR 41 28.9 62% 37 29.81 1009.9
08 04:56 SW 7 10.00 Fair CLR 39.9 28.9 65% 36 29.81 1009.9
08 03:56 SW 6 10.00 Fair CLR 39 28.9 67% 35 29.82 1010.2
08 02:56 SW 7 10.00 Fair CLR 37 28.9 73% 32 29.84 1010.7
08 01:56 SW 8 10.00 Fair CLR 37.9 28 68% 33 29.85 1011.3
08 00:56 SW 6 10.00 Fair CLR 37 27 44.1 37 67% 33 29.87 1011.8
07 23:56 Calm 10.00 Fair CLR 39 28 65% 29.87 1012.1
07 22:56 SW 6 10.00 Fair CLR 39.9 27 60% 36 29.87 1012.0
07 21:56 S 6 10.00 Fair CLR 39.9 28.9 65% 36 29.88 1012.2
07 20:56 S 7 10.00 Fair CLR 42.1 28.9 60% 38 29.87 1011.9
07 19:56 S 8 10.00 Fair CLR 42.1 28.9 60% 38 29.85 1011.3
07 18:56 S 14 10.00 A Few Clouds FEW070 44.1 30 53.1 44.1 58% 38 29.83 1010.9
07 17:56 S 16 10.00 Partly Cloudy SCT065 46 30.9 56% 40 29.83 1010.7
07 16:56 S 16 G 23 10.00 Partly Cloudy FEW055 SCT075 SCT090 46.9 30.9 54% 41 29.84 1010.9
07 15:56 W 14 10.00 Partly Cloudy SCT050 52 28.9 41% 29.84 1010.8
07 14:56 W 10 G 17 10.00 Partly Cloudy SCT055 52 28 40% 29.86 1011.4
07 13:56 W 12 10.00 Mostly Cloudy BKN055 50 26.1 39% 46 29.86 1011.7
07 12:56 SW 12 10.00 A Few Clouds FEW070 50 25 50 39 38% 46 29.87 1012.0
07 11:56 NW 8 G 18 10.00 Partly Cloudy SCT060 48.9 25 39% 46 29.9 1012.9
07 10:56 NW 8 10.00 Partly Cloudy FEW050 SCT070 46.9 24.1 41% 44 29.92 1013.6
07 09:56 NW 12 G 17 10.00 Mostly Cloudy SCT050 BKN080 46 23 40% 41 29.93 1014.2
07 08:56 W 12 10.00 Partly Cloudy SCT065 44.1 28 53% 39 29.95 1014.6
07 07:56 W 7 10.00 Overcast OVC055 41 27 57% 37 29.95 1014.6
07 06:56 W 7 10.00 Overcast OVC060 39 27 39.9 36 62% 35 29.94 1014.3
07 05:56 W 6 10.00 A Few Clouds FEW065 36 25 64% 32 29.92 1013.8
07 04:56 W 6 10.00 Fair CLR 36 26.1 67% 32 29.92 1013.7
07 03:56 W 7 10.00 Fair CLR 37 25 62% 32 29.92 1013.9
07 02:56 W 3 10.00 Fair CLR 37 25 62% 29.92 1013.9
07 01:56 W 6 10.00 Fair CLR 37.9 25 60% 34 29.94 1014.4
07 00:56 NW 6 10.00 Overcast OVC060 39.9 27 50 39.9 60% 36 29.95 1014.9
06 23:56 W 8 10.00 Overcast OVC070 42.1 27 55% 38 29.96 1015.0
06 22:56 W 8 10.00 Partly Cloudy SCT070 41 27 57% 36 29.95 1014.8
06 21:56 W 8 10.00 Fair CLR 42.1 26.1 53% 38 29.95 1014.6
06 20:56 W 8 10.00 Fair CLR 44.1 25 47% 40 29.93 1014.2
06 19:56 W 10 10.00 Fair CLR 46.9 25 42% 43 29.91 1013.5
06 18:56 Vrbl 7 10.00 Mostly Cloudy FEW065 BKN085 48 34 48 43 58% 45 29.9 1013.1
06 17:56 SE 8 10.00 Partly Cloudy FEW070 SCT090 45 36 71% 41 29.9 1013.1
06 16:56 SE 8 10.00 Partly Cloudy SCT065 45 32 61% 41 29.9 1013.1
06 15:56 SE 10 10.00 Mostly Cloudy SCT060 BKN075 44.1 33.1 65% 39 29.91 1013.3
06 14:56 SE 10 10.00 Partly Cloudy SCT075 44.1 27 51% 39 29.92 1013.6
06 13:56 SE 10 10.00 Mostly Cloudy BKN065 45 28 52% 40 29.92 1013.8
06 12:56 SE 10 10.00 Mostly Cloudy BKN060 BKN070 43 26.1 45 35.1 51% 38 29.92 1013.9
06 11:56 E 13 10.00 Mostly Cloudy BKN055 BKN065 43 25 49% 37 29.94 1014.3
Date Time (cdt) Wind (mph) Vis. (mi.) Weather Sky Cond. Air Dwpt Max. Min. Relative Humidity Wind Chill (°F) Heat Index (°F) altimeter (in) sea level (mb) 1 hr 3 hr 6 hr
6 hour
Temperature (ºF) Pressure Precipitation (in)